Time;durP1;ratioP1;P1;durP2;ratioP2;P2;SDS_P1;SDS_P2;PMS_P1;PMS_P2;Temp;Humidity;BMP_temperature;BMP_pressure;BME280_temperature;BME280_humidity;BME280_pressure;Samples;Min_cycle;Max_cycle;Signal;HPM_P1;HPM_P2
2022/08/10 00:01:04;;;;;;;3.07;1.83;;;;;;;24.04;44.28;102593.84;5034695;28;20026;-67
2022/08/10 00:03:29;;;;;;;2.42;1.20;;;;;;;24.03;44.31;102594.81;5034031;28;20297;-67
2022/08/10 00:05:55;;;;;;;2.88;1.10;;;;;;;24.04;44.04;102598.34;5034973;28;20028;-67
2022/08/10 00:08:23;;;;;;;3.63;1.20;;;;;;;24.02;44.05;102602.94;5034684;28;20026;-68
2022/08/10 00:10:49;;;;;;;2.53;1.20;;;;;;;24.01;44.46;102593.25;5034073;28;20021;-67
2022/08/10 00:13:14;;;;;;;3.20;1.20;;;;;;;24.01;44.38;102596.75;5034298;28;20036;-68
2022/08/10 00:15:39;;;;;;;2.90;1.13;;;;;;;24.00;44.01;102595.06;5034984;28;20389;-68
2022/08/10 00:18:05;;;;;;;1.85;1.05;;;;;;;24.00;44.00;102592.41;5033888;28;20283;-68
2022/08/10 00:20:30;;;;;;;2.92;1.30;;;;;;;23.98;44.55;102597.00;5034820;28;20088;-68
2022/08/10 00:22:55;;;;;;;2.08;1.00;;;;;;;23.99;44.30;102595.19;5034496;28;20488;-68
2022/08/10 00:25:21;;;;;;;3.57;1.30;;;;;;;23.97;44.56;102592.63;5033511;28;20036;-67
2022/08/10 00:27:46;;;;;;;2.03;0.90;;;;;;;23.97;44.19;102589.13;5034379;28;20638;-67
2022/08/10 00:30:11;;;;;;;2.23;1.10;;;;;;;23.97;44.54;102581.97;5034290;28;20281;-67
2022/08/10 00:32:37;;;;;;;3.28;1.02;;;;;;;23.98;44.24;102580.19;5033628;28;20740;-67
2022/08/10 00:35:03;;;;;;;2.90;1.20;;;;;;;23.98;44.37;102585.50;5034017;28;20037;-67
2022/08/10 00:37:28;;;;;;;4.40;1.10;;;;;;;23.96;44.06;102574.13;5034252;28;20124;-67
2022/08/10 00:39:53;;;;;;;2.50;1.10;;;;;;;23.94;44.47;102573.41;5033493;28;20104;-68
2022/08/10 00:42:19;;;;;;;1.77;1.10;;;;;;;23.95;44.42;102578.59;5033701;28;20291;-67
2022/08/10 00:44:48;;;;;;;1.90;1.00;;;;;;;23.94;44.60;102570.75;5033453;28;20300;-67
2022/08/10 00:47:14;;;;;;;1.73;1.08;;;;;;;23.93;44.65;102577.88;5033624;28;20634;-67
2022/08/10 00:49:40;;;;;;;2.95;1.15;;;;;;;23.93;44.23;102574.38;5034182;28;20029;-67
2022/08/10 00:52:06;;;;;;;2.05;1.20;;;;;;;23.90;44.49;102570.97;5032433;28;20021;-67
2022/08/10 00:54:34;;;;;;;2.40;1.08;;;;;;;23.91;44.24;102571.84;5033947;28;20112;-67
2022/08/10 00:57:00;;;;;;;2.33;1.10;;;;;;;23.90;44.57;102572.81;5033487;28;20021;-67
2022/08/10 00:59:25;;;;;;;1.70;1.02;;;;;;;23.88;44.56;102567.59;5033547;28;20075;-67
2022/08/10 01:01:50;;;;;;;2.78;1.20;;;;;;;23.88;44.36;102569.44;5034067;28;20470;-67
2022/08/10 01:04:15;;;;;;;2.03;1.00;;;;;;;23.89;44.58;102568.44;5033629;28;20075;-67
2022/08/10 01:07:19;;;;;;;5.32;1.30;;;;;;;23.87;44.63;102568.56;5032899;28;20275;-67
2022/08/10 01:09:58;;;;;;;3.87;1.33;;;;;;;23.87;44.23;102562.41;5033811;28;20042;-67
2022/08/10 01:12:26;;;;;;;2.35;1.10;;;;;;;23.87;44.36;102563.22;5033537;28;20432;-67
2022/08/10 01:15:00;;;;;;;2.42;1.10;;;;;;;23.86;44.27;102564.22;5032661;28;20484;-67
2022/08/10 01:17:45;;;;;;;2.47;1.00;;;;;;;23.86;44.24;102566.00;5033530;28;20079;-67
2022/08/10 01:20:13;;;;;;;2.40;1.05;;;;;;;23.85;44.79;102567.00;5032575;28;20030;-67
2022/08/10 01:22:53;;;;;;;2.20;1.00;;;;;;;23.83;44.35;102561.81;5033663;28;20030;-67
2022/08/10 01:25:55;;;;;;;2.42;1.00;;;;;;;23.81;44.50;102555.69;5032901;28;20405;-67
2022/08/10 01:28:55;;;;;;;1.83;0.90;;;;;;;23.81;44.37;102560.19;5031656;28;20099;-67
2022/08/10 01:31:29;;;;;;;1.58;0.90;;;;;;;23.80;44.78;102554.03;5033130;28;20112;-67
2022/08/10 01:34:01;;;;;;;;;;;;;;;23.80;44.42;102559.34;5033091;28;20026;-67
2022/08/10 01:36:33;;;;;;;3.45;1.30;;;;;;;23.79;44.80;102560.31;5033143;28;19920;-67
2022/08/10 01:39:06;;;;;;;4.93;1.10;;;;;;;23.78;44.49;102560.41;5033075;28;20087;-67
2022/08/10 01:41:43;;;;;;;2.65;1.30;;;;;;;23.77;44.46;102558.75;5032228;28;20073;-67
2022/08/10 01:44:13;;;;;;;2.60;1.23;;;;;;;23.77;44.45;102559.59;5032781;28;20037;-67
2022/08/10 01:46:44;;;;;;;2.33;1.10;;;;;;;23.77;44.46;102561.41;5033062;28;20022;-67
2022/08/10 01:49:12;;;;;;;2.45;1.10;;;;;;;23.77;44.56;102553.44;5031944;28;20075;-67
2022/08/10 01:51:44;;;;;;;2.38;1.10;;;;;;;23.76;44.44;102555.22;5033130;28;20411;-67
2022/08/10 01:54:17;;;;;;;3.63;1.33;;;;;;;23.76;44.76;102557.03;5032842;28;20021;-68
2022/08/10 01:56:47;;;;;;;3.03;1.45;;;;;;;23.76;44.94;102560.53;5032240;28;20366;-67
2022/08/10 01:59:17;;;;;;;2.20;1.10;;;;;;;23.75;44.79;102556.22;5032613;28;20116;-67
2022/08/10 02:01:48;;;;;;;2.65;1.10;;;;;;;23.72;44.83;102557.28;5032780;28;20017;-68
2022/08/10 02:04:15;;;;;;;2.67;1.45;;;;;;;23.72;44.79;102553.78;5030833;28;20369;-68
2022/08/10 02:06:44;;;;;;;3.65;1.20;;;;;;;23.71;44.67;102557.41;5032819;28;20108;-67
2022/08/10 02:09:17;;;;;;;3.10;1.10;;;;;;;23.72;45.00;102559.94;5031698;28;20034;-67
2022/08/10 02:11:43;;;;;;;3.55;1.45;;;;;;;23.72;44.47;102553.78;5032626;28;20104;-69
2022/08/10 02:14:13;;;;;;;2.58;1.10;;;;;;;23.70;44.61;102559.22;5032219;28;20049;-67
2022/08/10 02:16:42;;;;;;;2.58;1.10;;;;;;;23.70;44.92;102559.22;5032077;28;20086;-67
2022/08/10 02:19:14;;;;;;;1.83;1.10;;;;;;;23.70;44.49;102561.03;5032500;28;20044;-67
2022/08/10 02:21:45;;;;;;;2.40;1.35;;;;;;;23.68;44.75;102549.66;5032790;28;20029;-67
2022/08/10 02:24:13;;;;;;;2.15;1.10;;;;;;;23.66;44.55;102543.63;5031416;28;20060;-68
2022/08/10 02:26:43;;;;;;;2.17;1.13;;;;;;;23.67;44.96;102550.63;5032591;28;20477;-67
2022/08/10 02:29:12;;;;;;;2.65;1.30;;;;;;;23.66;44.61;102539.13;5032249;28;20021;-67
2022/08/10 02:31:41;;;;;;;2.20;1.20;;;;;;;23.65;44.64;102545.41;5031919;28;20033;-67
2022/08/10 02:34:10;;;;;;;3.03;1.40;;;;;;;23.64;45.10;102546.41;5032526;28;20029;-67
2022/08/10 02:36:40;;;;;;;2.72;1.25;;;;;;;23.64;44.95;102556.19;5032580;28;20333;-67
2022/08/10 02:39:07;;;;;;;2.88;1.30;;;;;;;23.63;44.77;102557.16;5031346;28;20021;-67
2022/08/10 02:41:42;;;;;;;2.97;1.27;;;;;;;23.61;45.10;102551.13;5032264;28;20117;-67
2022/08/10 02:44:45;;;;;;;2.70;1.20;;;;;;;23.60;45.09;102549.41;5032153;28;20037;-67
2022/08/10 02:47:18;;;;;;;2.03;1.15;;;;;;;23.59;45.06;102548.59;5032217;28;20021;-68
2022/08/10 02:49:54;;;;;;;2.30;1.27;;;;;;;23.59;44.88;102553.03;5032684;28;20414;-68
2022/08/10 02:52:33;;;;;;;2.70;1.42;;;;;;;23.57;44.87;102547.84;5031593;28;20166;-68
2022/08/10 02:55:06;;;;;;;2.83;1.40;;;;;;;23.56;45.12;102548.81;5032063;28;20477;-68
2022/08/10 02:57:36;;;;;;;3.22;1.38;;;;;;;23.52;45.16;102531.38;5032367;28;20030;-68
2022/08/10 03:00:06;;;;;;;3.05;1.20;;;;;;;23.53;44.99;102533.94;5031452;28;20025;-67
2022/08/10 03:02:35;;;;;;;3.28;1.10;;;;;;;23.52;45.19;102534.88;5032107;28;20072;-68
2022/08/10 03:05:06;;;;;;;3.72;1.30;;;;;;;23.52;45.22;102537.53;5032021;28;20065;-68
2022/08/10 03:07:57;;;;;;;2.38;1.10;;;;;;;23.52;45.20;102537.53;5031468;28;20494;-68
2022/08/10 03:10:27;;;;;;;2.92;1.20;;;;;;;23.51;44.81;102527.00;5031788;28;20033;-67
2022/08/10 03:13:03;;;;;;;2.50;1.33;;;;;;;23.49;44.99;102527.13;5031487;28;20036;-67
2022/08/10 03:15:29;;;;;;;2.65;1.23;;;;;;;23.48;45.12;102529.91;5033612;28;20025;-67
2022/08/10 03:17:56;;;;;;;1.77;1.10;;;;;;;23.48;45.28;102522.81;5035809;28;20025;-68
2022/08/10 03:20:23;;;;;;;2.67;1.33;;;;;;;23.47;45.10;102520.25;5034799;28;20033;-68
2022/08/10 03:22:52;;;;;;;2.72;1.30;;;;;;;23.46;45.06;102519.41;5035747;28;20021;-67
2022/08/10 03:25:21;;;;;;;3.30;1.30;;;;;;;23.44;45.04;102521.34;5035145;28;20025;-67
2022/08/10 03:27:48;;;;;;;2.63;1.20;;;;;;;23.44;45.33;102523.16;5035092;28;20471;-67
2022/08/10 03:30:14;;;;;;;3.75;1.33;;;;;;;23.42;45.10;102519.78;5035311;28;20456;-67
2022/08/10 03:32:41;;;;;;;2.53;1.45;;;;;;;23.41;45.26;102518.91;5035692;28;20034;-67
2022/08/10 03:35:08;;;;;;;2.95;1.40;;;;;;;23.42;45.45;102519.78;5034539;28;20033;-67
2022/08/10 03:37:33;;;;;;;2.92;1.40;;;;;;;23.41;45.07;102521.56;5035711;28;20029;-67
2022/08/10 03:39:59;;;;;;;2.53;1.40;;;;;;;23.42;45.08;102520.63;5035159;28;20484;-67
2022/08/10 03:42:26;;;;;;;3.70;1.83;;;;;;;23.42;45.22;102522.44;5034689;28;20451;-67
2022/08/10 03:44:54;;;;;;;1.92;1.15;;;;;;;23.42;45.48;102525.09;5035282;28;20116;-67
2022/08/10 03:47:21;;;;;;;3.88;1.50;;;;;;;23.41;45.09;102526.88;5035018;28;20025;-67
2022/08/10 03:49:49;;;;;;;3.03;1.50;;;;;;;23.40;45.33;102527.00;5034415;28;20043;-67
2022/08/10 03:52:16;;;;;;;3.42;1.75;;;;;;;23.40;45.45;102525.22;5034812;28;20099;-67
2022/08/10 03:54:42;;;;;;;3.00;1.60;;;;;;;23.39;45.28;102530.66;5034480;28;20036;-67
2022/08/10 03:57:08;;;;;;;3.60;1.75;;;;;;;23.37;45.55;102528.13;5034848;28;20112;-67
2022/08/10 03:59:35;;;;;;;2.85;1.48;;;;;;;23.38;45.03;102536.94;5035349;28;20029;-67
2022/08/10 04:02:01;;;;;;;3.22;1.70;;;;;;;23.35;45.61;102533.56;5034049;28;20033;-67
2022/08/10 04:04:27;;;;;;;4.00;1.60;;;;;;;23.33;45.31;102529.31;5034707;28;20393;-67
2022/08/10 04:06:54;;;;;;;2.70;1.52;;;;;;;23.34;45.47;102536.34;5035137;28;20017;-67
2022/08/10 04:09:19;;;;;;;2.90;1.70;;;;;;;23.34;45.64;102528.34;5033997;28;20330;-67
2022/08/10 04:11:45;;;;;;;3.53;1.92;;;;;;;23.32;45.45;102531.13;5034883;28;20033;-67
2022/08/10 04:14:10;;;;;;;3.73;1.70;;;;;;;23.32;45.34;102535.56;5034298;28;20061;-67
2022/08/10 04:16:35;;;;;;;3.42;1.65;;;;;;;23.31;45.37;102531.25;5033880;28;20620;-66
2022/08/10 04:19:02;;;;;;;3.40;1.60;;;;;;;23.30;45.40;102527.72;5034314;28;20017;-67
2022/08/10 04:21:33;;;;;;;4.60;1.90;;;;;;;23.31;45.28;102526.75;5034749;28;20278;-67
2022/08/10 04:24:01;;;;;;;4.95;1.70;;;;;;;23.30;45.30;102535.69;5033736;28;20056;-67
2022/08/10 04:26:27;;;;;;;3.10;1.52;;;;;;;23.29;45.55;102534.03;5033909;28;20017;-67
2022/08/10 04:28:52;;;;;;;4.28;1.52;;;;;;;23.30;45.43;102540.19;5034288;28;20024;-67
2022/08/10 04:31:18;;;;;;;3.80;1.65;;;;;;;23.30;45.21;102534.88;5033434;28;20296;-67
2022/08/10 04:33:48;;;;;;;4.63;1.50;;;;;;;23.30;45.38;102535.69;5034230;28;20021;-67
2022/08/10 04:36:15;;;;;;;3.42;1.88;;;;;;;23.26;45.57;102528.94;5034150;28;20029;-67
2022/08/10 04:38:42;;;;;;;3.17;1.52;;;;;;;23.28;45.54;102536.81;5033730;28;20033;-67
2022/08/10 04:41:08;;;;;;;3.63;1.75;;;;;;;23.27;45.41;102535.94;5033859;28;20087;-67
2022/08/10 04:43:33;;;;;;;3.13;1.60;;;;;;;23.27;45.68;102532.44;5034106;28;20021;-67
2022/08/10 04:46:04;;;;;;;4.80;1.92;;;;;;;23.26;45.54;102530.75;5033103;28;20178;-67
2022/08/10 04:48:30;;;;;;;4.35;1.70;;;;;;;23.25;45.59;102532.56;5034096;28;20459;-67
2022/08/10 04:50:55;;;;;;;3.08;1.70;;;;;;;23.25;45.45;102529.91;5033268;28;20091;-68
2022/08/10 04:53:21;;;;;;;3.10;1.85;;;;;;;23.25;45.49;102537.03;5033910;28;20038;-67
2022/08/10 04:55:46;;;;;;;3.13;1.90;;;;;;;23.25;45.46;102526.41;5034169;28;20024;-67
2022/08/10 04:58:11;;;;;;;2.80;1.70;;;;;;;23.25;45.96;102531.72;5032928;28;20034;-67
2022/08/10 05:00:36;;;;;;;3.93;1.70;;;;;;;23.26;45.41;102528.09;5033698;28;20259;-67
2022/08/10 05:03:02;;;;;;;2.95;1.60;;;;;;;23.25;45.50;102527.22;5033384;28;20285;-67
2022/08/10 05:05:27;;;;;;;3.35;1.60;;;;;;;23.25;46.06;102524.56;5033122;28;20025;-67
2022/08/10 05:07:55;;;;;;;3.20;1.55;;;;;;;23.25;45.84;102524.56;5033840;28;20052;-67
2022/08/10 05:10:20;;;;;;;3.72;1.42;;;;;;;23.25;45.83;102529.91;5033417;28;20032;-67
2022/08/10 05:12:46;;;;;;;3.60;1.90;;;;;;;23.24;45.72;102520.25;5032916;28;20026;-67
2022/08/10 05:15:13;;;;;;;3.78;1.92;;;;;;;23.24;45.79;102522.91;5033196;28;20492;-67
2022/08/10 05:17:40;;;;;;;3.97;2.15;;;;;;;23.25;45.71;102521.91;5033559;28;20168;-67
2022/08/10 05:20:07;;;;;;;3.30;1.80;;;;;;;23.25;45.96;102532.56;5032548;28;20104;-67
2022/08/10 05:22:35;;;;;;;3.28;1.70;;;;;;;23.25;45.57;102521.91;5033317;28;20029;-67
2022/08/10 05:25:01;;;;;;;3.83;2.05;;;;;;;23.26;45.88;102528.09;5033029;28;20385;-68
2022/08/10 05:27:28;;;;;;;3.53;1.88;;;;;;;23.27;45.75;102530.63;5032636;28;20026;-67
2022/08/10 05:29:54;;;;;;;4.13;1.90;;;;;;;23.27;45.62;102533.28;5033140;28;20523;-68
2022/08/10 05:32:19;;;;;;;4.27;1.90;;;;;;;23.27;45.83;102535.09;5033170;28;20022;-67
2022/08/10 05:34:48;;;;;;;3.65;1.90;;;;;;;23.28;45.62;102531.47;5032621;28;20627;-67
2022/08/10 05:37:14;;;;;;;3.45;1.80;;;;;;;23.29;46.08;102536.69;5033059;28;20120;-68
2022/08/10 05:39:40;;;;;;;3.88;2.20;;;;;;;23.29;45.94;102535.81;5033121;28;20026;-68
2022/08/10 05:42:06;;;;;;;4.82;1.88;;;;;;;23.32;46.08;102541.78;5031865;28;20064;-68
2022/08/10 05:44:32;;;;;;;4.95;3.10;;;;;;;23.13;46.19;102539.69;5032947;28;20485;-68
2022/08/10 05:46:57;;;;;;;5.05;3.10;;;;;;;22.85;47.15;102542.69;5033173;28;20108;-68
2022/08/10 05:49:23;;;;;;;4.03;2.83;;;;;;;22.53;48.04;102536.16;5032283;28;20105;-68
2022/08/10 05:51:49;;;;;;;5.45;3.42;;;;;;;22.29;48.68;102541.41;5033039;28;20025;-68
2022/08/10 05:54:14;;;;;;;7.88;3.55;;;;;;;22.09;49.19;102546.34;5031891;28;20112;-68
2022/08/10 05:56:42;;;;;;;5.25;3.65;;;;;;;21.91;49.68;102542.38;5032843;28;20029;-67
2022/08/10 05:59:09;;;;;;;5.18;2.40;;;;;;;21.88;50.25;102547.88;5032324;28;20025;-68
2022/08/10 06:01:40;;;;;;;3.83;2.13;;;;;;;21.99;49.92;102542.66;5032138;28;20026;-68
2022/08/10 06:04:08;;;;;;;3.55;2.20;;;;;;;22.18;49.79;102547.50;5032435;28;20079;-69
2022/08/10 06:06:34;;;;;;;4.13;2.17;;;;;;;22.38;49.17;102540.78;5032711;28;20071;-70
2022/08/10 06:09:00;;;;;;;5.72;2.00;;;;;;;22.60;48.89;102542.69;5031281;28;20028;-66
2022/08/10 06:11:28;;;;;;;3.13;1.73;;;;;;;22.77;48.15;102538.78;5032648;28;20037;-68
2022/08/10 06:16:41;;;;;;;3.35;1.83;;;;;;;23.08;47.88;102544.50;5032284;28;20036;-68
2022/08/10 06:19:06;;;;;;;3.63;1.80;;;;;;;23.15;47.34;102544.88;5032240;28;20469;-67
2022/08/10 06:21:35;;;;;;;4.47;1.90;;;;;;;23.22;47.30;102547.91;5032455;28;20033;-69
2022/08/10 06:24:03;;;;;;;3.58;1.75;;;;;;;23.27;47.16;102546.56;5031357;28;20102;-67
2022/08/10 06:26:28;;;;;;;3.83;1.70;;;;;;;23.32;47.37;102555.06;5032668;28;20028;-67
2022/08/10 06:29:06;;;;;;;3.40;1.73;;;;;;;23.39;47.05;102549.28;5032710;28;20025;-67
2022/08/10 06:31:37;;;;;;;3.17;1.75;;;;;;;23.43;46.88;102543.59;5031774;28;20825;-67
2022/08/10 06:34:04;;;;;;;2.95;1.70;;;;;;;23.47;46.67;102545.03;5032259;28;20037;-67
2022/08/10 06:36:43;;;;;;;3.75;1.88;;;;;;;23.51;46.97;102542.97;5031667;28;20061;-66
2022/08/10 06:39:09;;;;;;;2.55;1.42;;;;;;;23.53;46.85;102541.91;5032237;28;20033;-68
2022/08/10 06:41:42;;;;;;;3.75;1.80;;;;;;;23.56;46.67;102540.84;5032330;28;20038;-70
2022/08/10 06:44:18;;;;;;;2.95;1.55;;;;;;;23.50;47.13;102539.47;5032606;28;20168;-70
2022/08/10 06:46:47;;;;;;;5.88;2.90;;;;;;;23.47;47.07;102539.72;5032539;28;20021;-73
2022/08/10 06:49:14;;;;;;;3.10;1.50;;;;;;;23.47;47.46;102544.22;5031858;28;20017;-70
2022/08/10 06:51:42;;;;;;;2.67;1.40;;;;;;;23.48;47.44;102546.75;5034685;28;20026;-71
2022/08/10 06:54:11;;;;;;;3.78;1.60;;;;;;;23.51;47.32;102542.97;5035903;28;20024;-71
2022/08/10 06:56:40;;;;;;;3.60;1.67;;;;;;;23.56;47.24;102543.50;5036086;28;20473;-70
2022/08/10 06:59:09;;;;;;;5.50;1.60;;;;;;;23.64;47.46;102535.75;5035173;28;20025;-67
2022/08/10 07:01:37;;;;;;;5.30;1.73;;;;;;;23.72;47.06;102543.13;5036037;28;20140;-70
2022/08/10 07:04:19;;;;;;;3.60;1.55;;;;;;;23.76;46.76;102551.72;5035921;28;20025;-71
2022/08/10 07:06:47;;;;;;;3.70;1.63;;;;;;;23.78;46.95;102550.63;5035525;28;20399;-70
2022/08/10 07:09:15;;;;;;;4.25;1.70;;;;;;;23.80;46.63;102553.16;5035833;28;20060;-70
2022/08/10 07:11:43;;;;;;;4.05;1.63;;;;;;;23.82;47.04;102552.06;5035330;28;20470;-73
2022/08/10 07:14:11;;;;;;;3.72;1.80;;;;;;;23.83;46.65;102556.47;5035635;28;20025;-69
2022/08/10 07:16:39;;;;;;;4.78;1.80;;;;;;;23.85;46.63;102553.69;5035806;28;20534;-70
2022/08/10 07:19:07;;;;;;;2.88;1.45;;;;;;;23.84;46.89;102550.16;5034900;28;20084;-69
2022/08/10 07:21:33;;;;;;;5.30;1.63;;;;;;;23.86;46.66;102550.03;5035916;28;20056;-69
2022/08/10 07:24:00;;;;;;;3.97;1.55;;;;;;;23.86;47.01;102558.91;5035460;28;20030;-70
2022/08/10 07:26:29;;;;;;;4.47;1.70;;;;;;;23.87;47.08;102554.41;5034814;28;20032;-69
2022/08/10 07:28:55;;;;;;;4.20;1.90;;;;;;;23.91;46.70;102550.53;5035869;28;20108;-70
2022/08/10 07:31:21;;;;;;;3.70;1.60;;;;;;;23.94;46.48;102558.28;5035219;28;20359;-70
2022/08/10 07:33:51;;;;;;;3.90;1.60;;;;;;;23.98;46.76;102561.56;5034849;28;20100;-71
2022/08/10 07:36:19;;;;;;;3.25;1.63;;;;;;;23.99;46.45;102552.56;5035274;28;20096;-70
2022/08/10 07:38:45;;;;;;;3.60;1.58;;;;;;;24.00;46.46;102563.09;5035441;28;20040;-71
2022/08/10 07:41:13;;;;;;;3.60;1.48;;;;;;;24.03;46.73;102557.53;5034006;28;20404;-71
2022/08/10 07:43:39;;;;;;;2.95;1.50;;;;;;;24.04;46.37;102561.91;5035522;28;20083;-71
2022/08/10 07:46:10;;;;;;;3.45;1.65;;;;;;;24.05;46.78;102560.94;5035223;28;20053;-70
2022/08/10 07:48:42;;;;;;;4.43;1.63;;;;;;;24.08;46.56;102558.03;5034721;28;20029;-71
2022/08/10 07:51:09;;;;;;;2.83;1.60;;;;;;;24.11;46.40;102556.09;5034800;28;20461;-71
2022/08/10 07:53:41;;;;;;;2.97;1.30;;;;;;;24.11;46.29;102562.25;5034841;28;20099;-71
2022/08/10 07:56:08;;;;;;;2.97;1.50;;;;;;;24.12;46.63;102557.78;5034598;28;20373;-72
2022/08/10 07:58:38;;;;;;;5.68;1.52;;;;;;;24.11;46.37;102559.59;5035068;28;20037;-72
2022/08/10 08:01:03;;;;;;;2.92;1.50;;;;;;;24.12;46.70;102558.63;5033909;28;20629;-71
2022/08/10 08:03:33;;;;;;;4.28;1.52;;;;;;;24.12;46.69;102563.13;5034842;28;20029;-71
2022/08/10 08:06:00;;;;;;;3.30;1.67;;;;;;;24.13;46.62;102562.13;5034780;28;20416;-71
2022/08/10 08:08:32;;;;;;;4.00;1.60;;;;;;;24.12;46.57;102566.63;5034265;28;20021;-72
2022/08/10 08:10:58;;;;;;;3.13;1.60;;;;;;;24.12;46.89;102563.94;5035022;28;20033;-72
2022/08/10 08:13:25;;;;;;;3.35;1.55;;;;;;;24.13;46.74;102564.78;5034913;28;20052;-70
2022/08/10 08:15:52;;;;;;;3.28;1.55;;;;;;;24.14;46.71;102566.50;5033866;28;20465;-71
2022/08/10 08:18:21;;;;;;;4.07;1.55;;;;;;;24.13;46.47;102557.63;5034431;28;20025;-71
2022/08/10 08:20:48;;;;;;;4.18;1.80;;;;;;;24.18;46.39;102560.81;5036155;28;20474;-70
2022/08/10 08:23:16;;;;;;;4.05;2.00;;;;;;;24.21;46.44;102567.69;5033518;28;20029;-69
2022/08/10 08:25:42;;;;;;;3.97;1.80;;;;;;;24.23;46.24;102563.94;5034619;28;20082;-69
2022/08/10 08:28:09;;;;;;;3.78;2.15;;;;;;;24.23;46.65;102571.09;5034241;28;20057;-69
2022/08/10 08:30:38;;;;;;;3.35;1.60;;;;;;;24.24;46.18;102559.44;5033773;28;20037;-68
2022/08/10 08:33:04;;;;;;;2.80;1.50;;;;;;;24.27;46.53;102557.41;5034200;28;20079;-68
2022/08/10 08:35:31;;;;;;;3.65;1.70;;;;;;;24.29;46.46;102559.91;5034439;28;20025;-68
2022/08/10 08:37:57;;;;;;;4.32;1.80;;;;;;;24.32;46.23;102562.31;5033677;28;20087;-68
2022/08/10 08:40:23;;;;;;;4.53;1.73;;;;;;;24.31;46.19;102557.13;5033745;28;20508;-71
2022/08/10 08:43:17;;;;;;;4.03;1.88;;;;;;;24.35;46.17;102558.56;5034126;28;20481;-69
2022/08/10 08:46:32;;;;;;;4.90;1.90;;;;;;;24.39;46.39;102555.53;5034091;28;20104;-70
2022/08/10 08:49:20;;;;;;;3.28;1.63;;;;;;;24.46;45.85;102550.56;5034240;28;20049;-70
2022/08/10 08:52:30;;;;;;;3.97;1.83;;;;;;;24.53;45.77;102550.88;5033384;28;20112;-70
2022/08/10 08:55:13;;;;;;;3.40;1.70;;;;;;;24.58;45.81;102551.41;5032020;28;20052;-70
2022/08/10 08:57:53;;;;;;;3.08;1.40;;;;;;;24.61;45.78;102562.66;5031222;28;20039;-74
2022/08/10 09:00:49;;;;;;;4.15;1.73;;;;;;;24.61;45.80;102554.66;5033020;28;20041;-72
2022/08/10 09:03:43;;;;;;;4.20;1.80;;;;;;;24.62;45.76;102559.03;5034987;28;20025;-73
2022/08/10 09:06:28;;;;;;;3.50;1.73;;;;;;;24.64;45.44;102553.53;5032742;28;20108;-74
2022/08/10 09:09:18;;;;;;;3.20;1.60;;;;;;;24.66;45.40;102551.63;5034071;28;20029;-74
2022/08/10 09:12:21;;;;;;;4.05;1.60;;;;;;;24.65;45.86;102549.91;5032924;28;20029;-71
2022/08/10 09:14:59;;;;;;;4.03;1.58;;;;;;;24.64;45.49;102542.88;5033314;28;20033;-70
2022/08/10 09:17:47;;;;;;;3.72;1.63;;;;;;;24.65;45.41;102543.75;5033801;28;20124;-73
2022/08/10 09:20:21;;;;;;;3.85;1.60;;;;;;;24.66;45.91;102540.94;5032692;28;20025;-73
2022/08/10 09:23:02;;;;;;;5.18;1.75;;;;;;;24.68;45.47;102539.00;5033826;28;20017;-73
2022/08/10 09:25:47;;;;;;;4.25;1.50;;;;;;;24.68;45.65;102535.50;5032743;28;20037;-72
2022/08/10 09:28:25;;;;;;;5.55;1.70;;;;;;;24.68;45.48;102527.50;5033220;28;20056;-74
2022/08/10 09:30:56;;;;;;;12.80;2.00;;;;;;;24.69;45.37;102529.16;5033483;28;20112;-72
2022/08/10 09:34:06;;;;;;;3.55;1.50;;;;;;;24.69;45.39;102527.38;5032301;28;20108;-73
2022/08/10 09:36:59;;;;;;;4.93;1.40;;;;;;;24.72;45.32;102528.91;5032517;28;20044;-69
2022/08/10 09:39:47;;;;;;;3.33;1.80;;;;;;;24.75;45.55;102526.00;5032502;28;20025;-71
2022/08/10 09:42:17;;;;;;;3.35;1.48;;;;;;;24.77;45.47;102524.91;5032741;28;20053;-73
2022/08/10 09:45:04;;;;;;;5.72;1.85;;;;;;;24.80;45.43;102523.78;5033340;28;20017;-70
2022/08/10 09:47:44;;;;;;;2.92;1.40;;;;;;;24.79;45.42;102519.44;5032874;28;20035;-75
2022/08/10 09:50:37;;;;;;;4.10;1.83;;;;;;;24.78;45.49;102517.75;5032984;28;20025;-72
2022/08/10 09:53:21;;;;;;;4.30;1.48;;;;;;;24.78;45.37;102523.06;5033075;28;20112;-71
2022/08/10 09:56:08;;;;;;;3.78;1.75;;;;;;;24.81;44.94;102513.00;5033082;28;20072;-71
2022/08/10 09:58:41;;;;;;;3.90;1.60;;;;;;;24.84;44.89;102503.06;5033005;28;20393;-71
2022/08/10 10:01:37;;;;;;;5.35;1.70;;;;;;;24.84;45.25;102509.22;5032207;28;20372;-75
2022/08/10 10:04:23;;;;;;;3.58;1.45;;;;;;;24.85;44.83;102497.59;5032646;28;20389;-75
2022/08/10 10:06:52;;;;;;;3.10;1.52;;;;;;;24.86;45.20;102496.59;5032889;28;20056;-75
2022/08/10 10:09:30;;;;;;;2.90;1.60;;;;;;;24.85;44.86;102494.06;5031936;28;20025;-73
2022/08/10 10:12:18;;;;;;;3.00;1.65;;;;;;;24.85;45.15;102494.94;5033134;28;20021;-72
2022/08/10 10:17:46;;;;;;;3.95;1.40;;;;;;;24.85;45.35;102486.06;5032737;28;20100;-74
2022/08/10 10:20:40;;;;;;;3.00;1.40;;;;;;;24.83;44.91;102480.88;5032427;28;20029;-72
2022/08/10 10:23:45;;;;;;;3.45;1.60;;;;;;;24.79;45.35;102474.97;5032025;28;20076;-71
2022/08/10 10:26:41;;;;;;;3.63;1.80;;;;;;;24.77;45.30;102484.91;5034194;28;20512;-72
2022/08/10 10:29:23;;;;;;;2.95;1.60;;;;;;;24.76;45.03;102477.88;5035754;28;20026;-72
2022/08/10 10:31:56;;;;;;;2.50;1.40;;;;;;;24.73;45.08;102466.63;5036709;28;20056;-72
2022/08/10 10:34:36;;;;;;;2.83;1.50;;;;;;;24.72;45.10;102470.28;5036560;28;20037;-71
2022/08/10 10:37:05;;;;;;;4.88;1.70;;;;;;;24.73;45.29;102464.81;5035597;28;20512;-70
2022/08/10 10:39:32;;;;;;;2.83;1.63;;;;;;;24.73;45.26;102474.63;5036601;28;20144;-71
2022/08/10 10:42:19;;;;;;;3.08;1.60;;;;;;;24.75;44.91;102467.34;5036481;28;20042;-69
2022/08/10 10:45:13;;;;;;;3.58;1.63;;;;;;;24.75;45.38;102467.34;5035763;28;20035;-71
2022/08/10 10:48:06;;;;;;;;;;;;;;;24.74;45.07;102463.84;5036196;28;20478;-70
2022/08/10 10:51:09;;;;;;;3.22;1.70;;;;;;;24.77;44.86;102452.09;5038745;28;19924;-71
2022/08/10 10:54:05;;;;;;;3.60;1.70;;;;;;;24.80;44.86;102451.78;5036411;28;20025;-73
2022/08/10 10:57:02;;;;;;;3.28;1.85;;;;;;;24.80;44.65;102451.78;5036690;28;20048;-69
2022/08/10 11:00:00;;;;;;;4.68;1.70;;;;;;;24.81;44.82;102445.50;5036622;28;20384;-71
2022/08/10 11:02:51;;;;;;;3.47;1.80;;;;;;;24.82;44.97;102452.53;5036287;28;20021;-71
2022/08/10 11:05:25;;;;;;;3.65;1.70;;;;;;;24.81;44.63;102441.00;5034832;28;20112;-72
2022/08/10 11:08:06;;;;;;;4.50;1.67;;;;;;;24.80;44.96;102433.13;5036343;28;20373;-70
2022/08/10 11:10:43;;;;;;;5.18;1.65;;;;;;;24.79;44.89;102434.97;5036287;28;20064;-69
2022/08/10 11:13:24;;;;;;;5.05;1.63;;;;;;;24.81;44.60;102429.50;5035829;28;20120;-69
2022/08/10 11:16:03;;;;;;;4.00;1.70;;;;;;;24.84;44.65;102428.41;5035776;28;20362;-69
2022/08/10 11:18:34;;;;;;;3.88;1.83;;;;;;;24.84;44.86;102426.56;5035468;28;20052;-69
2022/08/10 11:21:12;;;;;;;3.45;1.58;;;;;;;24.83;44.83;102424.88;5035753;28;20087;-70
2022/08/10 11:23:51;;;;;;;3.45;1.85;;;;;;;24.81;44.68;102422.34;5035840;28;20029;-71
2022/08/10 11:26:30;;;;;;;3.42;1.63;;;;;;;24.80;44.72;102425.13;5034857;28;20117;-71
2022/08/10 11:29:24;;;;;;;3.95;1.80;;;;;;;24.77;44.35;102420.09;5035934;28;20029;-72
2022/08/10 11:31:57;;;;;;;3.33;1.63;;;;;;;24.76;44.91;102418.41;5034660;28;20067;-71
2022/08/10 11:34:35;;;;;;;2.80;1.67;;;;;;;24.74;44.69;102421.19;5035152;28;20556;-71
2022/08/10 11:37:20;;;;;;;4.03;1.73;;;;;;;24.73;44.94;102421.31;5035046;28;20036;-69
2022/08/10 11:39:58;;;;;;;3.20;1.60;;;;;;;24.74;44.48;102423.03;5034838;28;20025;-71
2022/08/10 11:42:52;;;;;;;3.67;1.60;;;;;;;24.73;44.76;102418.66;5035389;28;20125;-70
2022/08/10 11:45:36;;;;;;;7.55;2.00;;;;;;;24.70;44.78;102413.59;5035189;28;20034;-71
2022/08/10 11:48:16;;;;;;;3.50;1.80;;;;;;;24.74;44.82;102410.53;5035185;28;20040;-71
2022/08/10 11:51:10;;;;;;;3.67;1.90;;;;;;;24.72;44.77;102409.81;5035202;28;20037;-71
2022/08/10 11:54:12;;;;;;;2.95;1.70;;;;;;;24.72;44.76;102408.94;5034020;28;20038;-71
2022/08/10 11:56:45;;;;;;;3.65;1.92;;;;;;;24.72;44.43;102406.28;5035552;28;20041;-71
2022/08/10 12:01:57;;;;;;;3.28;1.63;;;;;;;24.76;44.73;102397.06;5034874;28;20087;-73